METAR Data
IDs: Format: Raw Decoded Include TAF

Data at: 1127 UTC 26 Sep 2018

KPIM 261115Z AUTO 00000KT 10SM CLR 21/21 A3011 RMK AO2 T02120205 PWINO
KPIM 261055Z AUTO 14003KT 10SM CLR 21/21 A3011 RMK AO2 T02120205 PWINO
KPIM 261035Z AUTO 00000KT 10SM SCT047 SCT065 21/21 A3011 RMK AO2 T02110205 PWINO
KPIM 261015Z AUTO 00000KT 10SM SCT047 BKN065 21/21 A3011 RMK AO2 T02120206 PWINO
KPIM 260955Z AUTO 00000KT 10SM BKN065 21/21 A3011 RMK AO2 T02140207 PWINO
KPIM 260935Z AUTO 00000KT 10SM SCT065 21/21 A3011 RMK AO2 T02110205 PWINO
KPIM 260915Z AUTO 00000KT 10SM CLR 21/21 A3011 RMK AO2 T02120205 PWINO
KPIM 260855Z AUTO 00000KT 10SM CLR 22/21 A3010 RMK AO2 T02160207 PWINO
KPIM 260835Z AUTO 00000KT 10SM CLR 22/21 A3010 RMK AO2 T02200205 PWINO
KPIM 260815Z AUTO 00000KT 10SM CLR 22/21 A3010 RMK AO2 T02240205 PWINO
KPIM 260755Z AUTO 00000KT 10SM CLR 22/21 A3010 RMK AO2 T02230208 PWINO
KPIM 260735Z AUTO 00000KT 10SM CLR 22/21 A3010 RMK AO2 T02230208 PWINO
KPIM 260715Z AUTO 00000KT 10SM CLR 22/21 A3011 RMK AO2 T02240207 PWINO
KPIM 260655Z AUTO 00000KT 10SM CLR 22/21 A3012 RMK AO2 T02210211 PWINO
KPIM 260635Z AUTO 00000KT 10SM CLR 22/21 A3012 RMK AO2 T02210211 PWINO
KPIM 260615Z AUTO 00000KT 10SM CLR 22/21 A3013 RMK AO2 T02220208 PWINO
KPIM 260555Z AUTO 00000KT 10SM CLR 22/21 A3013 RMK AO2 T02210207 10245 20218 PWINO
KPIM 260535Z AUTO 00000KT 10SM CLR 22/21 A3013 RMK AO2 T02200210 PWINO
KPIM 260515Z AUTO 00000KT 10SM CLR 22/21 A3013 RMK AO2 T02190210 PWINO
KPIM 260455Z AUTO 00000KT 10SM CLR 22/21 A3014 RMK AO2 T02210208 PWINO
KPIM 260435Z AUTO 00000KT 10SM SCT090 22/21 A3015 RMK AO2 T02210210 PWINO
KPIM 260415Z AUTO 00000KT 10SM BKN090 23/21 A3016 RMK AO2 T02260206 PWINO
KPIM 260355Z AUTO 00000KT 10SM OVC090 23/21 A3016 RMK AO2 T02250205 PWINO
KPIM 260335Z AUTO 00000KT 10SM BKN090 23/21 A3016 RMK AO2 T02260205 PWINO
KPIM 260315Z AUTO 00000KT 10SM CLR 23/21 A3016 RMK AO2 T02250205 PWINO
KPIM 260255Z AUTO 21003KT 10SM CLR 23/21 A3015 RMK AO2 T02270205 PWINO
KPIM 260235Z AUTO 00000KT 10SM CLR 23/21 A3014 RMK AO2 T02250210 PWINO
KPIM 260215Z AUTO 00000KT 10SM CLR 23/21 A3013 RMK AO2 T02260211 PWINO
KPIM 260155Z AUTO 00000KT 10SM CLR 23/21 A3013 RMK AO2 T02280212 PWINO
KPIM 260135Z AUTO 00000KT 10SM SCT110 23/21 A3012 RMK AO2 T02300212 PWINO
KPIM 260115Z AUTO 00000KT 10SM SCT060 SCT075 BKN110 23/21 A3011 RMK AO2 T02310212 PWINO
KPIM 260055Z AUTO 14004KT 10SM SCT050 SCT070 BKN085 23/21 A3010 RMK AO2 T02320212 PWINO
KPIM 260035Z AUTO 11003KT 10SM SCT011 SCT120 24/21 A3010 RMK AO2 T02350212 PWINO
KPIM 260015Z AUTO 15007KT 10SM SCT011 SCT046 BKN120 24/21 A3012 RMK AO2 T02400212 PWINO
KPIM 252355Z AUTO 20006KT 10SM SCT047 SCT055 BKN085 25/21 A3012 RMK AO2 T02460212 PWINO
KPIM 252335Z AUTO 20006G17KT 160V240 10SM SCT047 BKN055 BKN075 26/21 A3011 RMK AO2 T02600211 PWINO
KPIM 252315Z AUTO 13003KT 10SM SCT060 SCT075 SCT110 27/22 A3009 RMK AO2 T02700223 PWINO
KPIM 252255Z AUTO 00000KT 10SM SCT050 SCT110 27/23 A3010 RMK AO2 T02710230 PWINO
KPIM 252235Z AUTO 00000KT 10SM CLR 28/22 A3010 RMK AO2 T02800217 PWINO
KPIM 252215Z AUTO 00000KT 10SM CLR 29/22 A3010 RMK AO2 T02850215 PWINO
KPIM 252155Z AUTO 00000KT 10SM CLR 29/22 A3009 RMK AO2 T02870217 PWINO
KPIM 252135Z AUTO 00000KT 10SM CLR 29/22 A3008 RMK AO2 T02870217 PWINO
KPIM 252115Z AUTO 00000KT 10SM SCT085 SCT110 29/22 A3008 RMK AO2 T02860217 PWINO
KPIM 252055Z AUTO 00000KT 10SM SCT070 SCT075 BKN095 29/21 A3008 RMK AO2 T02900208 PWINO
KPIM 252035Z AUTO 00000KT 10SM SCT060 SCT070 BKN095 29/21 A3009 RMK AO2 T02910212 PWINO
KPIM 252015Z AUTO 00000KT 10SM SCT039 BKN060 OVC110 30/21 A3009 RMK AO2 T02950206 PWINO
KPIM 251955Z AUTO 14003KT 10SM SCT039 BKN070 30/21 A3010 RMK AO2 T03000206 PWINO
KPIM 251935Z AUTO 00000KT 10SM SCT037 SCT070 SCT080 31/21 A3010 RMK AO2 T03050205 PWINO
KPIM 251915Z AUTO 21003KT 10SM SCT039 SCT045 SCT080 30/21 A3011 RMK AO2 T03020205 PWINO
KPIM 251855Z AUTO 21004KT 10SM SCT040 SCT047 SCT070 30/21 A3012 RMK AO2 T02980205 PWINO
KPIM 251835Z AUTO 14003KT 10SM SCT033 BKN039 BKN070 31/21 A3013 RMK AO2 T03050208 PWINO
KPIM 251815Z AUTO 00000KT 10SM SCT033 BKN039 OVC070 30/21 A3013 RMK AO2 T02970208 PWINO
KPIM 251755Z AUTO 15004KT 10SM SCT029 SCT040 BKN070 30/21 A3015 RMK AO2 T02990207 10300 20236
KPIM 251735Z AUTO 15003KT 10SM BKN029 BKN033 BKN039 30/21 A3016 RMK AO2 T02960211 PWINO
KPIM 251715Z AUTO 14005KT 10SM SCT029 SCT036 BKN050 30/22 A3016 RMK AO2 T02960215 PWINO
KPIM 251655Z AUTO 15005KT 10SM SCT023 SCT030 BKN037 28/21 A3018 RMK AO2 T02820214 PWINO
KPIM 251635Z AUTO 12005KT 10SM SCT025 SCT034 28/21 A3018 RMK AO2 T02790212 PWINO
KPIM 251615Z AUTO 10004KT 10SM BKN024 BKN032 27/21 A3018 RMK AO2 T02740214 PWINO
KPIM 251555Z AUTO 14006KT 10SM SCT021 BKN031 BKN042 27/21 A3018 RMK AO2 T02690214 PWINO
KPIM 251535Z AUTO 14005KT 10SM SCT018 BKN028 OVC044 27/22 A3018 RMK AO2 T02650220 PWINO
KPIM 251515Z AUTO 14006KT 10SM BKN018 BKN025 OVC044 26/22 A3018 RMK AO2 T02600218 PWINO
KPIM 251455Z AUTO 14004KT 10SM SCT014 BKN025 26/22 A3018 RMK AO2 T02630223 PWINO
KPIM 251435Z AUTO 14006KT 10SM SCT012 SCT019 BKN025 26/22 A3018 RMK AO2 T02550221 PWINO
KPIM 251415Z AUTO 13006KT 10SM BKN012 OVC023 25/22 A3018 RMK AO2 T02500224 PWINO
KPIM 251355Z AUTO 12005KT 10SM BKN010 OVC026 25/23 A3018 RMK AO2 T02490225 PWINO
KPIM 251335Z AUTO 12006KT 10SM OVC010 25/22 A3018 RMK AO2 T02460224 PWINO
KPIM 251315Z AUTO 12005KT 10SM BKN010 OVC014 25/22 A3018 RMK AO2 T02460223 PWINO
KPIM 251255Z AUTO 12004KT 10SM OVC010 25/22 A3018 RMK AO2 T02450223 PWINO
KPIM 251235Z AUTO 12004KT 10SM OVC012 24/22 A3017 RMK AO2 T02420223 PWINO
KPIM 251215Z AUTO 13005KT 10SM BKN009 OVC016 24/22 A3016 RMK AO2 T02370221
KPIM 251155Z AUTO 13003KT 10SM BKN009 OVC015 24/22 A3016 RMK AO2 T02360222 10242 20233
KPIM 251135Z AUTO 12004KT 10SM BKN009 OVC014 24/22 A3015 RMK AO2 T02350221 PWINO
KPIM 251115Z AUTO 11004KT 10SM OVC009 24/22 A3015 RMK AO2 T02350221 PWINO
KPIM 251055Z AUTO 10005KT 10SM OVC011 24/22 A3015 RMK AO2 T02350220 PWINO
KPIM 251035Z AUTO 13006KT 10SM OVC011 24/22 A3015 RMK AO2 T02350220 PWINO
KPIM 251015Z AUTO 12007KT 10SM BKN011 23/22 A3013 RMK AO2 T02330220 PWINO
KPIM 250955Z AUTO 12005KT 10SM BKN013 BKN065 24/22 A3013 RMK AO2 T02350219 PWINO
KPIM 250935Z AUTO 12009KT 10SM BKN013 BKN045 BKN065 24/22 A3013 RMK AO2 T02350219 PWINO
KPIM 250915Z AUTO 12006KT 10SM OVC013 24/22 A3013 RMK AO2 T02360218 PWINO
KPIM 250855Z AUTO 11006KT 10SM SCT015 BKN038 OVC044 24/22 A3013 RMK AO2 T02360217 PWINO
KPIM 250840Z AUTO 11005KT 10SM BKN034 OVC042 24/22 A3013 RMK AO2 T02360216 PWINO
KPIM 250815Z AUTO 11005KT 10SM OVC030 24/22 A3013 RMK AO2 T02360216 PWINO
KPIM 250755Z AUTO 12007KT 10SM SCT028 BKN041 BKN060 24/22 A3012 RMK AO2 T02370216 PWINO
KPIM 250735Z AUTO 12006KT 10SM SCT029 SCT039 SCT060 24/22 A3013 RMK AO2 T02380216 PWINO
KPIM 250715Z AUTO 11006KT 10SM SCT029 BKN037 BKN042 24/22 A3012 RMK AO2 T02400217 PWINO
KPIM 250655Z AUTO 13007KT 10SM SCT027 OVC033 24/22 A3013 RMK AO2 T02400217 PWINO
KPIM 250635Z AUTO 11006KT 10SM OVC027 24/22 A3013 RMK AO2 T02410217 PWINO
KPIM 250615Z AUTO 11007KT 10SM BKN027 BKN032 BKN045 24/22 A3013 RMK AO2 T02410217 PWINO
KPIM 250555Z AUTO 10007KT 10SM SCT019 BKN027 OVC033 24/22 A3013 RMK AO2 T02420216 10251 20230 PWINO
KPIM 250535Z AUTO 10007KT 10SM SCT019 BKN027 BKN060 24/22 A3013 RMK AO2 T02420215 PWINO
KPIM 250515Z AUTO 10006KT 10SM SCT065 24/22 A3014 RMK AO2 T02410215 PWINO
KPIM 250455Z AUTO 10009KT 10SM SCT050 24/21 A3013 RMK AO2 T02420213 PWINO
KPIM 250435Z AUTO 10007KT 10SM SCT050 24/21 A3013 RMK AO2 T02420213 PWINO
KPIM 250415Z AUTO 10009G14KT 10SM CLR 25/21 A3013 RMK AO2 T02450212 PWINO
KPIM 250355Z AUTO 10009G14KT 10SM CLR 25/21 A3013 RMK AO2 T02450212 403150222 PWINO
KPIM 250335Z AUTO 10008G14KT 10SM CLR 25/21 A3013 RMK AO2 T02450213 PWINO
KPIM 250315Z AUTO 10009KT 10SM SCT060 24/21 A3012 RMK AO2 T02440212
KPIM 250255Z AUTO 10007KT 10SM SCT050 24/22 A3012 RMK AO2 T02390215 PWINO
KPIM 250235Z AUTO 00000KT 10SM BKN050 23/23 A3012 RMK AO2 T02300225 PWINO
KPIM 250215Z AUTO 00000KT 10SM SCT050 24/23 A3011 RMK AO2 T02350226 PWINO
KPIM 250155Z AUTO 00000KT 10SM SCT047 SCT050 BKN090 24/22 A3011 RMK AO2 T02420219
KPIM 250135Z AUTO 23004KT 10SM BKN047 OVC055 24/22 A3011 RMK AO2 T02400224
KPIM 250115Z AUTO 00000KT 10SM SCT041 OVC047 24/23 A3009 RMK AO2 T02410228
KPIM 250055Z AUTO 14004KT 10SM OVC044 24/22 A3008 RMK AO2 T02410222
KPIM 250035Z AUTO 25003KT 10SM BKN048 BKN075 OVC110 24/23 A3008 RMK AO2 T02350228 PWINO
KPIM 250015Z AUTO 00000KT 10SM SCT050 BKN075 OVC110 23/23 A3007 RMK AO2 T02330227 PWINO
KPIM 242355Z AUTO 00000KT 10SM -RA SCT048 BKN075 OVC100 23/23 A3007 RMK AO2 T02340225 10315 20231
KPIM 242335Z AUTO 06003KT 7SM SCT016 BKN045 OVC070 23/22 A3007 RMK AO2 T02320217